createdAt,value
2023-05-20T00:00:20.576Z,12.02
2023-05-20T00:01:22.826Z,11.97
2023-05-20T00:02:25.128Z,11.95
2023-05-20T00:03:27.560Z,12.00
2023-05-20T00:04:29.886Z,12.00
2023-05-20T00:05:32.308Z,11.72
2023-05-20T00:06:35.058Z,11.60
2023-05-20T00:07:37.440Z,11.52
2023-05-20T00:08:39.694Z,11.38
2023-05-20T00:09:42.047Z,11.26
2023-05-20T00:10:44.277Z,11.20
2023-05-20T00:11:46.968Z,11.13
2023-05-20T00:12:49.340Z,11.17
2023-05-20T00:13:51.660Z,11.14
2023-05-20T00:14:55.921Z,11.13
2023-05-20T00:15:58.665Z,11.18
2023-05-20T00:17:01.007Z,11.27
2023-05-20T00:18:04.076Z,11.29
2023-05-20T00:19:06.476Z,11.30
2023-05-20T00:20:09.009Z,11.31
2023-05-20T00:21:11.234Z,11.35
2023-05-20T00:22:13.862Z,11.31
2023-05-20T00:23:16.336Z,11.35
2023-05-20T00:24:18.563Z,11.38
2023-05-20T00:25:20.782Z,11.44
2023-05-20T00:26:23.004Z,11.47
2023-05-20T00:27:29.853Z,11.48
2023-05-20T00:28:32.089Z,11.43
2023-05-20T00:29:34.630Z,11.42
2023-05-20T00:30:40.234Z,11.52
2023-05-20T00:31:42.915Z,11.47
2023-05-20T00:32:45.221Z,11.37
2023-05-20T00:33:47.557Z,11.31
2023-05-20T00:35:00.006Z,11.43
2023-05-20T00:36:02.221Z,11.42
2023-05-20T00:37:04.478Z,11.45
2023-05-20T00:38:06.762Z,11.40
2023-05-20T00:39:08.969Z,11.50
2023-05-20T00:40:13.069Z,11.54
2023-05-20T00:41:17.180Z,11.68
2023-05-20T00:42:21.152Z,11.69
2023-05-20T00:43:25.284Z,11.73
2023-05-20T00:44:27.584Z,11.77
2023-05-20T00:45:31.505Z,11.74
2023-05-20T00:46:34.293Z,11.75
2023-05-20T00:47:37.202Z,11.73
2023-05-20T00:48:43.916Z,11.75
2023-05-20T00:49:49.628Z,11.71
2023-05-20T00:50:54.013Z,11.75
2023-05-20T00:51:56.574Z,11.83
2023-05-20T00:52:59.651Z,11.83
2023-05-20T00:54:02.144Z,11.82
2023-05-20T00:55:04.777Z,11.86
2023-05-20T00:56:08.445Z,11.83
2023-05-20T00:57:11.367Z,11.84
2023-05-20T00:58:14.200Z,11.87
2023-05-20T00:59:16.513Z,11.92
2023-05-20T01:00:18.875Z,11.91
2023-05-20T01:01:21.136Z,11.96
2023-05-20T01:02:24.005Z,11.97
2023-05-20T01:03:27.302Z,12.06
2023-05-20T01:04:30.666Z,12.07
2023-05-20T01:05:33.212Z,12.06
2023-05-20T01:06:38.049Z,12.00
2023-05-20T01:07:41.021Z,12.04
2023-05-20T01:08:43.348Z,12.04
2023-05-20T01:09:45.838Z,12.03
2023-05-20T01:10:54.485Z,12.01
2023-05-20T01:12:02.665Z,12.04
2023-05-20T01:13:11.426Z,12.09
2023-05-20T01:14:18.081Z,12.06
2023-05-20T01:15:22.470Z,12.14
2023-05-20T01:16:25.222Z,12.18
2023-05-20T01:17:32.885Z,12.21
2023-05-20T01:18:39.271Z,12.25
2023-05-20T01:19:46.325Z,12.28
2023-05-20T01:20:51.033Z,12.31
2023-05-20T01:21:54.081Z,12.23
2023-05-20T01:22:57.369Z,12.32
2023-05-20T01:24:01.698Z,12.34
2023-05-20T01:25:05.282Z,12.34
2023-05-20T01:26:08.213Z,12.33
2023-05-20T01:27:13.785Z,12.27
2023-05-20T01:28:18.117Z,12.22
2023-05-20T01:29:20.500Z,12.17
2023-05-20T01:30:27.344Z,11.98
2023-05-20T01:31:33.739Z,11.93
2023-05-20T01:32:39.199Z,11.94
2023-05-20T01:33:43.858Z,11.95
2023-05-20T01:34:49.748Z,11.96
2023-05-20T01:35:52.202Z,11.82
2023-05-20T01:36:55.632Z,11.84
2023-05-20T01:37:59.028Z,11.86
2023-05-20T01:39:03.017Z,11.69
2023-05-20T01:40:14.053Z,11.85
2023-05-20T01:41:16.985Z,11.89
2023-05-20T01:42:20.104Z,11.83
2023-05-20T01:43:24.947Z,11.94
2023-05-20T01:44:27.439Z,12.00
2023-05-20T01:45:29.696Z,11.94
2023-05-20T01:46:34.586Z,12.04
2023-05-20T01:47:36.875Z,12.04
2023-05-20T01:48:39.205Z,12.02
2023-05-20T01:49:41.629Z,11.99
2023-05-20T01:50:43.871Z,12.01
2023-05-20T01:51:46.383Z,12.10
2023-05-20T01:52:48.680Z,12.19
2023-05-20T01:53:51.008Z,12.12
2023-05-20T01:54:53.305Z,12.15
2023-05-20T01:55:55.520Z,12.24
2023-05-20T01:56:58.017Z,12.36
2023-05-20T01:58:00.413Z,12.38
2023-05-20T01:59:02.718Z,12.43
2023-05-20T02:02:09.095Z,12.22
2023-05-20T02:03:11.468Z,12.22
2023-05-20T02:04:14.681Z,12.13
2023-05-20T02:05:17.165Z,12.07
2023-05-20T02:06:19.430Z,12.04
2023-05-20T02:07:21.737Z,11.95
2023-05-20T02:08:24.003Z,12.03
2023-05-20T02:09:26.413Z,11.97
2023-05-20T02:10:28.704Z,11.95
2023-05-20T02:11:31.271Z,11.90
2023-05-20T02:12:33.594Z,12.00
2023-05-20T02:13:35.977Z,11.99
2023-05-20T02:14:38.295Z,12.02
2023-05-20T02:15:43.293Z,12.03
2023-05-20T02:16:46.778Z,12.12
2023-05-20T02:17:49.356Z,12.10
2023-05-20T02:18:52.995Z,12.18
2023-05-20T02:19:55.350Z,12.20
2023-05-20T02:21:02.324Z,12.19
2023-05-20T02:22:04.831Z,12.23
2023-05-20T02:23:08.549Z,12.34
2023-05-20T02:24:12.399Z,12.31
2023-05-20T02:25:14.920Z,12.26
2023-05-20T02:26:20.777Z,12.24
2023-05-20T02:27:23.315Z,12.29
2023-05-20T02:28:25.878Z,12.25
2023-05-20T02:29:28.185Z,12.28
2023-05-20T02:30:30.581Z,12.26
2023-05-20T02:31:32.876Z,12.24
2023-05-20T02:32:35.118Z,12.33
2023-05-20T02:33:37.626Z,12.35
2023-05-20T02:34:39.933Z,12.40
2023-05-20T02:35:42.434Z,12.41
2023-05-20T02:36:44.652Z,12.45
2023-05-20T02:37:48.255Z,12.40
2023-05-20T02:38:51.331Z,12.46
2023-05-20T02:39:53.560Z,12.39
2023-05-20T02:40:56.729Z,12.37
2023-05-20T02:41:58.948Z,12.28
2023-05-20T02:43:04.250Z,12.26
2023-05-20T02:44:06.638Z,12.29
2023-05-20T02:45:09.319Z,12.32
2023-05-20T02:46:11.645Z,12.34
2023-05-20T02:47:15.654Z,12.33
2023-05-20T02:48:18.026Z,12.36
2023-05-20T02:49:20.321Z,12.31
2023-05-20T02:50:22.716Z,12.29
2023-05-20T02:51:25.674Z,12.34
2023-05-20T02:52:28.439Z,12.40
2023-05-20T02:53:30.779Z,12.43
2023-05-20T02:54:33.157Z,12.48
2023-05-20T02:55:36.450Z,12.44
2023-05-20T02:56:38.797Z,12.45
2023-05-20T02:57:41.078Z,12.37
2023-05-20T02:58:44.955Z,12.34
2023-05-20T02:59:47.818Z,12.38
2023-05-20T03:00:50.003Z,12.45
2023-05-20T03:01:52.487Z,12.42
2023-05-20T03:02:55.135Z,12.38
2023-05-20T03:03:57.747Z,12.40
2023-05-20T03:05:02.544Z,12.38
2023-05-20T03:06:05.419Z,12.40
2023-05-20T03:07:08.890Z,12.40
2023-05-20T03:08:11.704Z,12.43
2023-05-20T03:09:14.420Z,12.40
2023-05-20T03:10:16.927Z,12.38
2023-05-20T03:11:19.851Z,12.40
2023-05-20T03:12:26.109Z,12.39
2023-05-20T03:13:28.364Z,12.45
2023-05-20T03:14:30.734Z,12.40
2023-05-20T03:15:33.286Z,12.35
2023-05-20T03:16:36.169Z,12.30
2023-05-20T03:17:38.850Z,12.31
2023-05-20T03:18:41.946Z,12.29
2023-05-20T03:19:44.451Z,12.30
2023-05-20T03:20:47.320Z,12.33
2023-05-20T03:21:50.650Z,12.33
2023-05-20T03:22:53.061Z,12.40
2023-05-20T03:23:55.888Z,12.41
2023-05-20T03:25:00.431Z,12.48
2023-05-20T03:26:03.289Z,12.53
2023-05-20T03:27:05.873Z,12.48
2023-05-20T03:28:09.652Z,12.48
2023-05-20T03:29:13.496Z,12.48
2023-05-20T03:30:15.964Z,12.51
2023-05-20T03:31:19.163Z,12.48
2023-05-20T03:32:21.838Z,12.45
2023-05-20T03:33:26.202Z,12.42
2023-05-20T03:34:30.153Z,12.49
2023-05-20T03:35:32.746Z,12.55
2023-05-20T03:36:35.556Z,12.49
2023-05-20T03:37:41.358Z,12.48
2023-05-20T03:38:43.932Z,12.39
2023-05-20T03:39:46.219Z,12.43
2023-05-20T03:40:49.068Z,12.41
2023-05-20T03:41:52.182Z,12.53
2023-05-20T03:42:54.509Z,12.49
2023-05-20T03:43:57.810Z,12.46
2023-05-20T03:45:01.161Z,12.55
2023-05-20T03:46:07.547Z,12.62
2023-05-20T03:47:11.470Z,12.52
2023-05-20T03:48:14.833Z,12.53
2023-05-20T03:49:18.761Z,12.53
2023-05-20T03:50:21.473Z,12.51
2023-05-20T03:51:24.235Z,12.48
2023-05-20T03:52:27.252Z,12.47
2023-05-20T03:53:29.583Z,12.46
2023-05-20T03:54:31.861Z,12.52
2023-05-20T03:55:35.224Z,12.50
2023-05-20T03:56:38.070Z,12.53
2023-05-20T03:57:40.612Z,12.55
2023-05-20T03:58:43.134Z,12.50
2023-05-20T03:59:45.515Z,12.50
2023-05-20T04:00:48.932Z,12.60
2023-05-20T04:01:51.397Z,12.62
2023-05-20T04:02:53.817Z,12.69
2023-05-20T04:03:57.348Z,12.63
2023-05-20T04:05:02.336Z,12.66
2023-05-20T04:06:05.059Z,12.64
2023-05-20T04:07:07.692Z,12.70
2023-05-20T04:08:09.922Z,12.77
2023-05-20T04:09:12.506Z,12.87
2023-05-20T04:10:14.916Z,12.76
2023-05-20T04:11:17.260Z,12.74
2023-05-20T04:12:20.789Z,12.68
2023-05-20T04:13:25.351Z,12.68
2023-05-20T04:14:27.672Z,12.62
2023-05-20T04:15:30.710Z,12.76
2023-05-20T04:16:34.388Z,12.74
2023-05-20T04:17:38.467Z,12.77
2023-05-20T04:18:41.141Z,12.78
2023-05-20T04:19:45.143Z,12.90
2023-05-20T04:20:47.968Z,12.97
2023-05-20T04:21:51.081Z,12.98
2023-05-20T04:22:54.145Z,12.89
2023-05-20T04:23:57.206Z,12.88
2023-05-20T04:24:59.440Z,12.90
2023-05-20T04:26:02.514Z,13.00
2023-05-20T04:27:07.194Z,12.89
2023-05-20T04:28:10.655Z,12.98
2023-05-20T04:29:13.362Z,12.97
2023-05-20T04:30:17.945Z,12.92
2023-05-20T04:31:21.227Z,12.95
2023-05-20T04:32:23.574Z,12.96
2023-05-20T04:33:27.140Z,12.90
2023-05-20T04:34:29.904Z,12.89
2023-05-20T04:35:32.375Z,13.01
2023-05-20T04:36:39.490Z,13.14
2023-05-20T04:37:42.297Z,13.00
2023-05-20T04:38:45.083Z,13.11
2023-05-20T04:39:49.856Z,13.26
2023-05-20T04:40:52.992Z,13.30
2023-05-20T04:41:55.336Z,13.32
2023-05-20T04:43:00.061Z,13.48
2023-05-20T04:44:03.765Z,13.53
2023-05-20T04:45:08.670Z,13.61
2023-05-20T04:46:11.900Z,13.80
2023-05-20T04:47:15.604Z,14.04
2023-05-20T04:48:18.022Z,14.04
2023-05-20T04:49:20.541Z,15.24
2023-05-20T04:50:22.823Z,16.57
2023-05-20T04:51:25.152Z,18.16
2023-05-20T04:52:27.572Z,19.51
2023-05-20T04:53:30.680Z,20.36
2023-05-20T04:54:33.031Z,19.83
2023-05-20T04:55:37.273Z,18.11
2023-05-20T04:56:40.307Z,16.71
2023-05-20T04:57:43.454Z,16.66
2023-05-20T04:58:45.959Z,18.36
2023-05-20T04:59:48.319Z,19.06
2023-05-20T05:00:52.170Z,19.50
2023-05-20T05:01:54.829Z,20.07
2023-05-20T05:02:58.043Z,20.44
2023-05-20T05:04:00.455Z,20.42
2023-05-20T05:05:03.283Z,19.69
2023-05-20T05:06:05.707Z,20.72
2023-05-20T05:07:07.979Z,20.92
2023-05-20T05:08:13.806Z,21.95
2023-05-20T05:09:22.813Z,20.58
2023-05-20T05:10:25.144Z,20.91
2023-05-20T05:11:27.408Z,22.78
2023-05-20T05:12:29.808Z,23.34
2023-05-20T05:13:32.094Z,21.97
2023-05-20T05:14:34.324Z,20.63
2023-05-20T05:15:36.912Z,21.00
2023-05-20T05:16:39.378Z,21.38
2023-05-20T05:17:42.183Z,21.87
2023-05-20T05:18:44.522Z,22.21
2023-05-20T05:19:46.817Z,21.28
2023-05-20T05:20:49.073Z,21.17
2023-05-20T05:21:51.385Z,22.98
2023-05-20T05:22:53.595Z,22.62
2023-05-20T05:23:58.192Z,21.36
2023-05-20T05:25:00.932Z,22.50
2023-05-20T05:26:03.272Z,24.20
2023-05-20T05:27:05.657Z,22.16
2023-05-20T05:28:07.934Z,21.52
2023-05-20T05:29:11.828Z,22.85
2023-05-20T05:30:16.812Z,21.65
2023-05-20T05:31:19.763Z,20.41
2023-05-20T05:32:22.243Z,20.63
2023-05-20T05:33:24.620Z,22.24
2023-05-20T05:34:27.440Z,21.76
2023-05-20T05:35:29.714Z,21.12
2023-05-20T05:36:33.746Z,20.66
2023-05-20T05:37:36.623Z,20.84
2023-05-20T05:38:39.631Z,20.70
2023-05-20T05:39:42.524Z,21.99
2023-05-20T05:40:44.718Z,20.93
2023-05-20T05:41:47.983Z,20.64
2023-05-20T05:42:50.281Z,20.85
2023-05-20T05:43:52.689Z,20.42
2023-05-20T05:44:55.033Z,19.98
2023-05-20T05:45:57.402Z,18.79
2023-05-20T05:47:00.420Z,19.58
2023-05-20T05:48:02.965Z,19.06
2023-05-20T05:49:05.817Z,19.60
2023-05-20T05:50:10.029Z,20.30
2023-05-20T05:51:12.986Z,21.72
2023-05-20T05:52:15.351Z,21.80
2023-05-20T05:53:18.324Z,21.53
2023-05-20T05:54:23.686Z,20.47
2023-05-20T05:55:26.713Z,20.50
2023-05-20T05:56:30.427Z,20.25
2023-05-20T05:57:33.474Z,19.77
2023-05-20T05:58:37.527Z,20.12
2023-05-20T05:59:41.696Z,20.38
2023-05-20T06:00:44.669Z,20.15
2023-05-20T06:01:46.975Z,20.53
2023-05-20T06:02:50.794Z,21.14
2023-05-20T06:04:05.265Z,21.57
2023-05-20T06:05:08.330Z,23.29
2023-05-20T06:06:10.661Z,20.93
2023-05-20T06:07:13.098Z,20.07
2023-05-20T06:08:15.368Z,20.60
2023-05-20T06:09:17.694Z,21.72
2023-05-20T06:10:20.007Z,21.85
2023-05-20T06:11:23.778Z,22.55
2023-05-20T06:12:27.351Z,23.33
2023-05-20T06:13:29.623Z,23.15
2023-05-20T06:14:32.845Z,22.20
2023-05-20T06:15:36.348Z,21.86
2023-05-20T06:16:39.215Z,23.87
2023-05-20T06:17:42.238Z,20.53
2023-05-20T06:18:50.196Z,19.28
2023-05-20T06:19:52.532Z,19.80
2023-05-20T06:20:56.520Z,18.92
2023-05-20T06:22:00.101Z,18.56
2023-05-20T06:23:02.320Z,18.43
2023-05-20T06:24:13.853Z,18.58
2023-05-20T06:25:16.531Z,19.46
2023-05-20T06:26:20.033Z,19.72
2023-05-20T06:27:22.977Z,20.51
2023-05-20T06:28:25.762Z,19.90
2023-05-20T06:29:29.021Z,20.55
2023-05-20T06:30:31.283Z,21.29
2023-05-20T06:31:33.981Z,20.29
2023-05-20T06:32:36.382Z,20.67
2023-05-20T06:33:38.739Z,21.55
2023-05-20T06:34:45.441Z,23.12
2023-05-20T06:35:48.195Z,22.59
2023-05-20T06:36:50.579Z,21.31
2023-05-20T06:37:52.873Z,21.27
2023-05-20T06:38:55.175Z,22.02
2023-05-20T06:39:57.590Z,23.38
2023-05-20T06:41:01.916Z,23.38
2023-05-20T06:42:05.345Z,22.84
2023-05-20T06:43:11.664Z,21.94
2023-05-20T06:44:38.154Z,21.73
2023-05-20T06:45:50.932Z,21.04
2023-05-20T06:47:14.893Z,21.19
2023-05-20T06:48:17.235Z,21.03
2023-05-20T06:49:20.094Z,21.72
2023-05-20T06:50:22.696Z,20.83
2023-05-20T06:51:25.219Z,20.33
2023-05-20T06:52:27.546Z,20.25
2023-05-20T06:53:30.056Z,20.32
2023-05-20T06:54:35.887Z,20.63
2023-05-20T06:55:38.288Z,21.24
2023-05-20T06:56:41.008Z,22.23
2023-05-20T06:57:44.804Z,22.86
2023-05-20T06:58:48.333Z,22.33
2023-05-20T06:59:51.079Z,21.98
2023-05-20T07:00:54.909Z,21.16
2023-05-20T07:01:57.291Z,21.51
2023-05-20T07:02:59.793Z,20.97
2023-05-20T07:04:02.322Z,20.70
2023-05-20T07:05:05.290Z,20.36
2023-05-20T07:06:07.735Z,21.01
2023-05-20T07:07:10.434Z,20.90
2023-05-20T07:08:13.034Z,21.79
2023-05-20T07:09:15.456Z,22.04
2023-05-20T07:10:17.693Z,21.40
2023-05-20T07:11:20.015Z,22.01
2023-05-20T07:12:22.217Z,21.11
2023-05-20T07:13:25.866Z,19.87
2023-05-20T07:14:28.099Z,18.12
2023-05-20T07:15:30.929Z,17.73
2023-05-20T07:16:34.937Z,18.02
2023-05-20T07:17:37.510Z,17.89
2023-05-20T07:18:40.952Z,18.40
2023-05-20T07:19:43.259Z,18.18
2023-05-20T07:20:45.712Z,18.12
2023-05-20T07:22:00.512Z,17.78
2023-05-20T07:23:27.676Z,17.57
2023-05-20T07:24:31.678Z,17.37
2023-05-20T07:25:34.118Z,17.65
2023-05-20T07:26:36.710Z,17.46
2023-05-20T07:27:39.277Z,17.68
2023-05-20T07:28:45.577Z,17.49
2023-05-20T07:29:47.998Z,17.21
2023-05-20T07:30:50.472Z,17.18
2023-05-20T07:31:56.609Z,17.38
2023-05-20T07:32:59.107Z,17.40
2023-05-20T07:34:01.896Z,17.29
2023-05-20T07:35:04.487Z,17.20
2023-05-20T07:36:09.118Z,17.46
2023-05-20T07:37:14.820Z,17.54
2023-05-20T07:38:18.171Z,17.74
2023-05-20T07:39:22.402Z,17.47
2023-05-20T07:40:24.983Z,17.68
2023-05-20T07:41:27.441Z,17.47
2023-05-20T07:42:30.238Z,17.64
2023-05-20T07:43:35.555Z,17.75
2023-05-20T07:44:39.017Z,17.52
2023-05-20T07:45:41.382Z,17.35
2023-05-20T07:46:43.781Z,17.19
2023-05-20T07:47:47.433Z,17.40
2023-05-20T07:48:49.768Z,17.53
2023-05-20T07:49:52.682Z,17.49
2023-05-20T07:50:59.033Z,17.32
2023-05-20T07:52:03.187Z,17.58
2023-05-20T07:53:06.294Z,17.71
2023-05-20T07:54:09.723Z,17.75
2023-05-20T07:55:12.654Z,17.90
2023-05-20T07:56:16.009Z,17.87
2023-05-20T07:57:18.289Z,18.04
2023-05-20T07:58:20.663Z,18.68
2023-05-20T07:59:22.863Z,19.32
2023-05-20T08:00:26.193Z,19.54
2023-05-20T08:01:28.797Z,19.04
2023-05-20T08:02:31.190Z,18.94
2023-05-20T08:03:33.638Z,18.90
2023-05-20T08:04:48.650Z,19.24
2023-05-20T08:05:50.988Z,19.53
2023-05-20T08:06:54.360Z,19.42
2023-05-20T08:08:05.631Z,18.42
2023-05-20T08:09:19.458Z,17.90
2023-05-20T08:10:25.901Z,18.50
2023-05-20T08:11:28.924Z,18.53
2023-05-20T08:12:32.022Z,18.34
2023-05-20T08:13:34.233Z,18.73
2023-05-20T08:14:37.855Z,18.90
2023-05-20T08:15:40.112Z,18.59
2023-05-20T08:16:42.707Z,18.18
2023-05-20T08:17:45.059Z,18.07
2023-05-20T08:18:47.503Z,18.39
2023-05-20T08:19:49.813Z,18.61
2023-05-20T08:20:52.052Z,19.12
2023-05-20T08:21:55.012Z,18.89
2023-05-20T08:22:57.253Z,18.45
2023-05-20T08:23:59.733Z,18.30
2023-05-20T08:25:02.101Z,18.39
2023-05-20T08:26:04.400Z,18.45
2023-05-20T08:27:08.536Z,18.76
2023-05-20T08:28:11.022Z,18.81
2023-05-20T08:29:13.749Z,19.05
2023-05-20T08:30:16.027Z,18.77
2023-05-20T08:31:19.306Z,18.42
2023-05-20T08:32:21.894Z,18.50
2023-05-20T08:33:25.198Z,18.47
2023-05-20T08:34:27.538Z,18.37
2023-05-20T08:35:29.873Z,18.36
2023-05-20T08:36:32.871Z,18.75
2023-05-20T08:37:35.115Z,18.86
2023-05-20T08:38:37.372Z,19.29
2023-05-20T08:39:39.562Z,19.01
2023-05-20T08:40:42.861Z,18.74
2023-05-20T08:41:46.998Z,19.15
2023-05-20T08:42:52.524Z,19.09
2023-05-20T08:43:55.503Z,19.44
2023-05-20T08:44:59.196Z,20.10
2023-05-20T08:46:05.262Z,20.14
2023-05-20T08:47:10.538Z,20.23
2023-05-20T08:48:12.810Z,19.92
2023-05-20T08:49:15.174Z,19.74
2023-05-20T08:50:17.491Z,19.77
2023-05-20T08:51:23.863Z,20.35
2023-05-20T08:52:26.953Z,20.61
2023-05-20T08:53:29.526Z,19.87
2023-05-20T08:54:57.993Z,19.34
2023-05-20T08:56:02.957Z,19.97
2023-05-20T08:57:05.880Z,20.56
2023-05-20T08:58:08.920Z,20.13
2023-05-20T08:59:11.470Z,20.15
2023-05-20T09:00:17.044Z,20.25
2023-05-20T09:01:23.577Z,19.75
2023-05-20T09:02:25.858Z,19.76
2023-05-20T09:03:28.719Z,20.12
2023-05-20T09:04:31.120Z,20.17
2023-05-20T09:05:34.438Z,19.71
2023-05-20T09:06:44.054Z,20.09
2023-05-20T09:07:46.256Z,20.04
2023-05-20T09:08:51.867Z,19.38
2023-05-20T09:09:54.053Z,18.99
2023-05-20T09:10:56.327Z,18.72
2023-05-20T09:11:59.391Z,19.32
2023-05-20T09:13:03.304Z,19.45
2023-05-20T09:14:05.562Z,20.62
2023-05-20T09:15:08.341Z,20.71
2023-05-20T09:16:11.444Z,20.38
2023-05-20T09:17:13.879Z,19.85
2023-05-20T09:18:16.497Z,19.62
2023-05-20T09:19:24.317Z,20.52
2023-05-20T09:20:27.276Z,20.45
2023-05-20T09:21:30.277Z,20.05
2023-05-20T09:22:32.487Z,20.05
2023-05-20T09:23:38.387Z,20.24
2023-05-20T09:24:41.273Z,20.61
2023-05-20T09:25:43.448Z,20.90
2023-05-20T09:26:45.850Z,20.78
2023-05-20T09:27:48.326Z,20.56
2023-05-20T09:28:51.442Z,20.29
2023-05-20T09:29:53.694Z,20.10
2023-05-20T09:30:59.872Z,20.01
2023-05-20T09:32:03.132Z,19.90
2023-05-20T09:33:05.952Z,19.49
2023-05-20T09:34:08.797Z,19.58
2023-05-20T09:35:14.393Z,19.22
2023-05-20T09:36:16.882Z,19.52
2023-05-20T09:37:21.614Z,19.88
2023-05-20T09:38:23.781Z,19.97
2023-05-20T09:39:30.867Z,19.51
2023-05-20T09:40:33.584Z,19.16
2023-05-20T09:41:39.593Z,19.23
2023-05-20T09:42:52.806Z,19.38
2023-05-20T09:43:55.366Z,19.18
2023-05-20T09:44:58.591Z,19.62
2023-05-20T09:46:02.608Z,19.85
2023-05-20T09:47:08.483Z,19.49
2023-05-20T09:48:12.966Z,19.44
2023-05-20T09:49:16.366Z,19.89
2023-05-20T09:50:21.533Z,19.67
2023-05-20T09:51:24.817Z,19.74
2023-05-20T09:52:27.664Z,20.07
2023-05-20T09:53:30.048Z,19.73
2023-05-20T09:54:33.201Z,19.58
2023-05-20T09:55:36.367Z,19.68
2023-05-20T09:56:41.050Z,19.65
2023-05-20T09:57:43.897Z,19.92
2023-05-20T09:58:47.572Z,20.55
2023-05-20T09:59:51.264Z,20.54
2023-05-20T10:00:54.089Z,19.83
2023-05-20T10:01:56.389Z,19.51
2023-05-20T10:02:59.615Z,19.98
2023-05-20T10:04:05.091Z,19.54
2023-05-20T10:05:15.332Z,19.63
2023-05-20T10:06:23.288Z,19.91
2023-05-20T10:07:47.694Z,19.99
2023-05-20T10:09:05.656Z,20.10
2023-05-20T10:10:24.798Z,20.24
2023-05-20T10:11:46.464Z,19.82
2023-05-20T10:13:22.644Z,19.84
2023-05-20T10:14:43.922Z,19.82
2023-05-20T10:16:30.070Z,19.91
2023-05-20T10:17:52.689Z,20.01
2023-05-20T10:19:21.404Z,19.55
2023-05-20T10:20:23.713Z,19.79
2023-05-20T10:21:25.946Z,20.06
2023-05-20T10:22:29.804Z,20.17
2023-05-20T10:23:32.192Z,20.29
2023-05-20T10:24:44.328Z,20.27
2023-05-20T10:25:52.439Z,20.81
2023-05-20T10:26:55.413Z,20.87
2023-05-20T10:28:07.879Z,20.96
2023-05-20T10:29:20.151Z,21.02
2023-05-20T10:30:22.442Z,20.88
2023-05-20T10:31:25.627Z,20.59
2023-05-20T10:32:33.008Z,20.70
2023-05-20T10:33:42.896Z,20.57
2023-05-20T10:34:48.911Z,20.73
2023-05-20T10:35:52.290Z,20.58
2023-05-20T10:36:54.471Z,20.94
2023-05-20T10:38:09.712Z,21.44
2023-05-20T10:39:17.266Z,21.33
2023-05-20T10:40:20.921Z,21.46
2023-05-20T10:41:27.859Z,21.42
2023-05-20T10:42:32.672Z,20.97
2023-05-20T10:43:34.849Z,20.42
2023-05-20T10:44:47.487Z,20.85
2023-05-20T10:45:55.618Z,21.24
2023-05-20T10:47:21.146Z,20.78
2023-05-20T10:48:28.984Z,21.28
2023-05-20T10:49:35.171Z,20.88
2023-05-20T10:50:38.636Z,21.33
2023-05-20T10:51:41.883Z,21.83
2023-05-20T10:52:44.123Z,21.40
2023-05-20T10:53:46.602Z,21.45
2023-05-20T10:54:57.214Z,21.61
2023-05-20T10:55:59.485Z,20.93
2023-05-20T10:57:09.093Z,20.34
2023-05-20T10:58:11.513Z,20.66
2023-05-20T10:59:14.075Z,21.13
2023-05-20T11:00:16.587Z,21.68
2023-05-20T11:01:19.333Z,21.50
2023-05-20T11:02:28.789Z,21.48
2023-05-20T11:03:33.129Z,22.19
2023-05-20T11:04:35.784Z,21.67
2023-05-20T11:05:39.666Z,21.02
2023-05-20T11:06:51.225Z,21.41
2023-05-20T11:08:04.421Z,21.95
2023-05-20T11:09:10.565Z,21.92
2023-05-20T11:10:12.789Z,21.96
2023-05-20T11:11:15.437Z,21.81
2023-05-20T11:12:17.820Z,22.43
2023-05-20T11:13:20.156Z,22.65
2023-05-20T11:14:22.523Z,22.64
2023-05-20T11:15:24.976Z,23.16
2023-05-20T11:16:27.246Z,23.52
2023-05-20T11:17:29.632Z,23.05
2023-05-20T11:18:32.160Z,22.32
2023-05-20T11:19:37.494Z,22.41
2023-05-20T11:20:39.747Z,21.85
2023-05-20T11:21:45.629Z,21.22
2023-05-20T11:22:50.006Z,21.56
2023-05-20T11:23:52.328Z,21.50
2023-05-20T11:24:54.583Z,21.42
2023-05-20T11:25:57.658Z,21.47
2023-05-20T11:27:01.481Z,20.98
2023-05-20T11:28:03.829Z,20.87
2023-05-20T11:29:06.151Z,21.07
2023-05-20T11:30:08.911Z,20.85
2023-05-20T11:31:11.419Z,21.02
2023-05-20T11:32:13.714Z,21.59
2023-05-20T11:33:17.381Z,21.23
2023-05-20T11:34:23.380Z,21.46
2023-05-20T11:35:30.147Z,21.69
2023-05-20T11:36:32.458Z,22.16
2023-05-20T11:37:36.305Z,22.39
2023-05-20T11:38:41.264Z,21.75
2023-05-20T11:39:43.469Z,21.49
2023-05-20T11:40:53.874Z,21.34
2023-05-20T11:41:57.567Z,21.11
2023-05-20T11:43:01.653Z,21.51
2023-05-20T11:44:03.992Z,22.05
2023-05-20T11:45:06.940Z,22.06
2023-05-20T11:46:09.874Z,22.48
2023-05-20T11:47:12.233Z,22.22
2023-05-20T11:48:17.227Z,21.67
2023-05-20T11:49:19.383Z,22.07
2023-05-20T11:50:21.903Z,22.36
2023-05-20T11:51:27.075Z,21.77
2023-05-20T11:52:29.482Z,21.59
2023-05-20T11:53:32.015Z,21.79
2023-05-20T11:54:36.333Z,21.35
2023-05-20T11:55:55.111Z,21.31
2023-05-20T11:56:58.608Z,21.38
2023-05-20T11:58:02.070Z,21.30
2023-05-20T11:59:05.925Z,21.25
2023-05-20T12:00:10.742Z,21.28
2023-05-20T12:01:21.605Z,21.33
2023-05-20T12:02:24.387Z,21.15
2023-05-20T12:03:27.412Z,21.27
2023-05-20T12:04:29.792Z,21.42
2023-05-20T12:05:32.125Z,21.09
2023-05-20T12:06:34.641Z,20.96
2023-05-20T12:07:36.888Z,21.20
2023-05-20T12:08:39.087Z,21.30
2023-05-20T12:09:41.259Z,21.78
2023-05-20T12:10:45.012Z,21.52
2023-05-20T12:11:47.173Z,21.35
2023-05-20T12:12:49.315Z,21.76
2023-05-20T12:13:51.584Z,21.88
2023-05-20T12:14:53.790Z,21.50
2023-05-20T12:15:56.127Z,21.34
2023-05-20T12:16:58.644Z,21.05
2023-05-20T12:18:01.493Z,21.46
2023-05-20T12:19:04.721Z,21.68
2023-05-20T12:20:07.546Z,21.74
2023-05-20T12:21:09.778Z,21.51
2023-05-20T12:22:11.978Z,21.75
2023-05-20T12:23:14.231Z,21.76
2023-05-20T12:24:16.529Z,22.58
2023-05-20T12:25:20.200Z,22.59
2023-05-20T12:26:22.738Z,22.80
2023-05-20T12:27:24.963Z,22.86
2023-05-20T12:28:27.123Z,22.39
2023-05-20T12:29:29.557Z,22.52
2023-05-20T12:30:31.782Z,22.04
2023-05-20T12:31:35.079Z,22.06
2023-05-20T12:32:38.204Z,21.84
2023-05-20T12:33:40.423Z,22.01
2023-05-20T12:34:42.660Z,22.07
2023-05-20T12:35:46.041Z,22.21
2023-05-20T12:36:48.452Z,22.04
2023-05-20T12:37:50.710Z,21.84
2023-05-20T12:38:52.942Z,21.66
2023-05-20T12:39:55.309Z,22.12
2023-05-20T12:40:57.520Z,22.39
2023-05-20T12:41:59.755Z,22.35
2023-05-20T12:43:03.539Z,22.52
2023-05-20T12:44:06.098Z,22.31
2023-05-20T12:45:09.372Z,21.80
2023-05-20T12:46:11.613Z,21.34
2023-05-20T12:47:14.052Z,21.32
2023-05-20T12:48:16.704Z,21.86
2023-05-20T12:49:18.865Z,21.77
2023-05-20T12:50:21.658Z,21.54
2023-05-20T12:51:23.818Z,21.27
2023-05-20T12:52:26.804Z,21.10
2023-05-20T12:53:29.035Z,21.13
2023-05-20T12:54:31.358Z,21.04
2023-05-20T12:55:33.574Z,21.23
2023-05-20T12:56:35.943Z,21.15
2023-05-20T12:57:38.098Z,21.50
2023-05-20T12:58:40.310Z,21.80
2023-05-20T12:59:42.496Z,22.06
2023-05-20T13:00:44.702Z,21.95
2023-05-20T13:01:47.347Z,21.69
2023-05-20T13:02:49.729Z,22.18
2023-05-20T13:03:53.366Z,22.40
2023-05-20T13:04:55.885Z,22.23
2023-05-20T13:05:59.265Z,22.55
2023-05-20T13:07:02.002Z,22.01
2023-05-20T13:08:04.310Z,21.76
2023-05-20T13:09:06.526Z,22.10
2023-05-20T13:10:10.451Z,22.34
2023-05-20T13:11:12.998Z,21.73
2023-05-20T13:12:15.230Z,21.85
2023-05-20T13:13:21.493Z,22.32
2023-05-20T13:14:23.833Z,22.92
2023-05-20T13:15:26.037Z,22.60
2023-05-20T13:16:28.408Z,22.48
2023-05-20T13:17:30.914Z,22.56
2023-05-20T13:18:33.092Z,22.80
2023-05-20T13:19:35.357Z,22.96
2023-05-20T13:20:37.830Z,22.97
2023-05-20T13:21:40.193Z,23.44
2023-05-20T13:22:42.562Z,23.40
2023-05-20T13:23:44.876Z,23.07
2023-05-20T13:24:47.113Z,23.21
2023-05-20T13:25:49.308Z,23.19
2023-05-20T13:26:51.757Z,23.52
2023-05-20T13:27:53.980Z,22.77
2023-05-20T13:28:56.143Z,22.81
2023-05-20T13:29:58.554Z,22.83
2023-05-20T13:31:02.834Z,23.41
2023-05-20T13:32:05.444Z,23.81
2023-05-20T13:33:07.797Z,23.92
2023-05-20T13:34:10.371Z,24.28
2023-05-20T13:35:13.144Z,24.46
2023-05-20T13:36:15.497Z,24.60
2023-05-20T13:37:17.723Z,23.82
2023-05-20T13:38:19.914Z,23.73
2023-05-20T13:39:22.121Z,23.79
2023-05-20T13:40:24.842Z,23.61
2023-05-20T13:41:27.593Z,24.43
2023-05-20T13:42:29.774Z,24.78
2023-05-20T13:43:33.188Z,24.16
2023-05-20T13:44:35.429Z,24.54